Aroya, Colorado
Current Conditions -  °F | °C
As of 12:55 AM on Friday 19 Dec 2014 (Local Time) from KLIC Reporting Station
Scattered Clouds Scattered Clouds  
Wind Chill: -14°   Ceiling: Unl
Heat Index: -8°   Visibility: 10mi
Dew Point: -10°   Wind: 7mph
Humidity: 88%   Direction: 360°N
Pressure: 30.09"   Gusts: NA
Location:  38.8543°N, 103.125°W
Report Text: KLIC 190755Z AUTO 36006KT 10SM SCT050 M08/M10 A3009 RMK AO2 SLP205 T10831100
Loading
Personal Weather Stations






























Interactive Weather Map New forecast layout! Learn more

10-Day Weather Forecast

Advertisements
Track Severe Weather on mobile